sensor_id;sensor_type;location;lat;lon;timestamp;P1;P2;P0
82667;PMS5003;72691;51.374;-0.176;2023-09-08T00:00:17;16;16;
82667;PMS5003;72691;51.374;-0.176;2023-09-08T00:02:43;21;20;
82667;PMS5003;72691;51.374;-0.176;2023-09-08T00:05:08;21;20;
82667;PMS5003;72691;51.374;-0.176;2023-09-08T00:07:33;19;19;
82667;PMS5003;72691;51.374;-0.176;2023-09-08T00:09:59;23;23;
82667;PMS5003;72691;51.374;-0.176;2023-09-08T00:12:24;26;26;
82667;PMS5003;72691;51.374;-0.176;2023-09-08T00:14:49;18;18;
82667;PMS5003;72691;51.374;-0.176;2023-09-08T00:17:14;18;18;
82667;PMS5003;72691;51.374;-0.176;2023-09-08T00:19:39;14;14;
82667;PMS5003;72691;51.374;-0.176;2023-09-08T00:22:05;16;16;
82667;PMS5003;72691;51.374;-0.176;2023-09-08T00:24:30;17;16;
82667;PMS5003;72691;51.374;-0.176;2023-09-08T00:26:55;18;18;
82667;PMS5003;72691;51.374;-0.176;2023-09-08T00:29:21;20;19;
82667;PMS5003;72691;51.374;-0.176;2023-09-08T00:31:46;19;18;
82667;PMS5003;72691;51.374;-0.176;2023-09-08T00:34:11;16;16;
82667;PMS5003;72691;51.374;-0.176;2023-09-08T00:36:37;18;17;
82667;PMS5003;72691;51.374;-0.176;2023-09-08T00:39:02;19;19;
82667;PMS5003;72691;51.374;-0.176;2023-09-08T00:41:27;16;15;
82667;PMS5003;72691;51.374;-0.176;2023-09-08T00:43:53;20;20;
82667;PMS5003;72691;51.374;-0.176;2023-09-08T00:46:18;15;15;
82667;PMS5003;72691;51.374;-0.176;2023-09-08T00:48:44;16;16;
82667;PMS5003;72691;51.374;-0.176;2023-09-08T00:51:09;15;14;
82667;PMS5003;72691;51.374;-0.176;2023-09-08T00:53:35;14;14;
82667;PMS5003;72691;51.374;-0.176;2023-09-08T00:56:00;12;12;
82667;PMS5003;72691;51.374;-0.176;2023-09-08T00:58:26;15;15;
82667;PMS5003;72691;51.374;-0.176;2023-09-08T01:00:51;11;11;
82667;PMS5003;72691;51.374;-0.176;2023-09-08T01:03:16;13;13;
82667;PMS5003;72691;51.374;-0.176;2023-09-08T01:05:42;14;14;
82667;PMS5003;72691;51.374;-0.176;2023-09-08T01:08:07;14;14;
82667;PMS5003;72691;51.374;-0.176;2023-09-08T01:10:32;12;12;
82667;PMS5003;72691;51.374;-0.176;2023-09-08T01:12:58;12;11;
82667;PMS5003;72691;51.374;-0.176;2023-09-08T01:15:23;10;10;
82667;PMS5003;72691;51.374;-0.176;2023-09-08T01:17:49;12;12;
82667;PMS5003;72691;51.374;-0.176;2023-09-08T01:20:15;12;12;
82667;PMS5003;72691;51.374;-0.176;2023-09-08T01:22:45;11;11;
82667;PMS5003;72691;51.374;-0.176;2023-09-08T01:25:10;10;10;
82667;PMS5003;72691;51.374;-0.176;2023-09-08T01:27:30;12;12;
82667;PMS5003;72691;51.374;-0.176;2023-09-08T01:29:56;13;12;
82667;PMS5003;72691;51.374;-0.176;2023-09-08T01:32:21;13;12;
82667;PMS5003;72691;51.374;-0.176;2023-09-08T01:34:46;10;10;
82667;PMS5003;72691;51.374;-0.176;2023-09-08T01:37:12;13;12;
82667;PMS5003;72691;51.374;-0.176;2023-09-08T01:39:37;11;11;
82667;PMS5003;72691;51.374;-0.176;2023-09-08T01:42:03;16;16;
82667;PMS5003;72691;51.374;-0.176;2023-09-08T01:44:28;13;13;
82667;PMS5003;72691;51.374;-0.176;2023-09-08T01:46:53;13;13;
82667;PMS5003;72691;51.374;-0.176;2023-09-08T01:49:19;9;9;
82667;PMS5003;72691;51.374;-0.176;2023-09-08T01:51:44;14;13;
82667;PMS5003;72691;51.374;-0.176;2023-09-08T01:54:10;13;13;
82667;PMS5003;72691;51.374;-0.176;2023-09-08T01:56:35;15;15;
82667;PMS5003;72691;51.374;-0.176;2023-09-08T01:59:00;12;12;
82667;PMS5003;72691;51.374;-0.176;2023-09-08T02:01:25;13;13;
82667;PMS5003;72691;51.374;-0.176;2023-09-08T02:03:50;14;13;
82667;PMS5003;72691;51.374;-0.176;2023-09-08T02:06:16;12;12;
82667;PMS5003;72691;51.374;-0.176;2023-09-08T02:08:41;16;16;
82667;PMS5003;72691;51.374;-0.176;2023-09-08T02:11:06;13;13;
82667;PMS5003;72691;51.374;-0.176;2023-09-08T02:13:31;16;14;
82667;PMS5003;72691;51.374;-0.176;2023-09-08T02:15:57;16;16;
82667;PMS5003;72691;51.374;-0.176;2023-09-08T02:18:22;13;13;
82667;PMS5003;72691;51.374;-0.176;2023-09-08T02:20:47;15;15;
82667;PMS5003;72691;51.374;-0.176;2023-09-08T02:23:13;14;13;
82667;PMS5003;72691;51.374;-0.176;2023-09-08T02:25:38;14;14;
82667;PMS5003;72691;51.374;-0.176;2023-09-08T02:28:04;12;12;
82667;PMS5003;72691;51.374;-0.176;2023-09-08T02:30:29;13;13;
82667;PMS5003;72691;51.374;-0.176;2023-09-08T02:32:54;13;12;
82667;PMS5003;72691;51.374;-0.176;2023-09-08T02:35:19;15;15;
82667;PMS5003;72691;51.374;-0.176;2023-09-08T02:37:44;20;18;
82667;PMS5003;72691;51.374;-0.176;2023-09-08T02:40:10;16;15;
82667;PMS5003;72691;51.374;-0.176;2023-09-08T02:42:35;13;13;
82667;PMS5003;72691;51.374;-0.176;2023-09-08T02:45:00;16;15;
82667;PMS5003;72691;51.374;-0.176;2023-09-08T02:47:26;13;12;
82667;PMS5003;72691;51.374;-0.176;2023-09-08T02:49:51;14;14;
82667;PMS5003;72691;51.374;-0.176;2023-09-08T02:52:17;11;11;
82667;PMS5003;72691;51.374;-0.176;2023-09-08T02:54:42;16;16;
82667;PMS5003;72691;51.374;-0.176;2023-09-08T02:57:07;16;16;
82667;PMS5003;72691;51.374;-0.176;2023-09-08T02:59:33;17;17;
82667;PMS5003;72691;51.374;-0.176;2023-09-08T03:01:59;17;16;
82667;PMS5003;72691;51.374;-0.176;2023-09-08T03:04:23;13;12;
82667;PMS5003;72691;51.374;-0.176;2023-09-08T03:06:49;13;13;
82667;PMS5003;72691;51.374;-0.176;2023-09-08T03:09:14;16;16;
82667;PMS5003;72691;51.374;-0.176;2023-09-08T03:11:39;16;15;
82667;PMS5003;72691;51.374;-0.176;2023-09-08T03:14:05;13;13;
82667;PMS5003;72691;51.374;-0.176;2023-09-08T03:16:30;11;11;
82667;PMS5003;72691;51.374;-0.176;2023-09-08T03:18:55;15;14;
82667;PMS5003;72691;51.374;-0.176;2023-09-08T03:21:21;12;12;
82667;PMS5003;72691;51.374;-0.176;2023-09-08T03:23:46;12;12;
82667;PMS5003;72691;51.374;-0.176;2023-09-08T03:26:11;12;12;
82667;PMS5003;72691;51.374;-0.176;2023-09-08T03:28:37;13;13;
82667;PMS5003;72691;51.374;-0.176;2023-09-08T03:31:02;11;11;
82667;PMS5003;72691;51.374;-0.176;2023-09-08T03:33:27;11;10;
82667;PMS5003;72691;51.374;-0.176;2023-09-08T03:35:52;11;11;
82667;PMS5003;72691;51.374;-0.176;2023-09-08T03:38:19;12;12;
82667;PMS5003;72691;51.374;-0.176;2023-09-08T03:40:43;15;15;
82667;PMS5003;72691;51.374;-0.176;2023-09-08T03:43:09;11;11;
82667;PMS5003;72691;51.374;-0.176;2023-09-08T03:45:34;14;14;
82667;PMS5003;72691;51.374;-0.176;2023-09-08T03:47:59;12;12;
82667;PMS5003;72691;51.374;-0.176;2023-09-08T03:50:25;15;14;
82667;PMS5003;72691;51.374;-0.176;2023-09-08T03:52:50;13;13;
82667;PMS5003;72691;51.374;-0.176;2023-09-08T03:55:15;14;14;
82667;PMS5003;72691;51.374;-0.176;2023-09-08T03:57:41;14;13;
82667;PMS5003;72691;51.374;-0.176;2023-09-08T04:00:07;13;13;
82667;PMS5003;72691;51.374;-0.176;2023-09-08T04:02:32;13;13;
82667;PMS5003;72691;51.374;-0.176;2023-09-08T04:04:57;14;13;
82667;PMS5003;72691;51.374;-0.176;2023-09-08T04:07:23;13;13;
82667;PMS5003;72691;51.374;-0.176;2023-09-08T04:09:48;15;14;
82667;PMS5003;72691;51.374;-0.176;2023-09-08T04:12:14;15;15;
82667;PMS5003;72691;51.374;-0.176;2023-09-08T04:14:39;17;16;
82667;PMS5003;72691;51.374;-0.176;2023-09-08T04:17:04;16;16;
82667;PMS5003;72691;51.374;-0.176;2023-09-08T04:19:30;13;12;
82667;PMS5003;72691;51.374;-0.176;2023-09-08T04:21:55;15;15;
82667;PMS5003;72691;51.374;-0.176;2023-09-08T04:24:21;14;14;
82667;PMS5003;72691;51.374;-0.176;2023-09-08T04:26:46;19;18;
82667;PMS5003;72691;51.374;-0.176;2023-09-08T04:29:11;15;13;
82667;PMS5003;72691;51.374;-0.176;2023-09-08T04:31:36;16;15;
82667;PMS5003;72691;51.374;-0.176;2023-09-08T04:34:02;17;17;
82667;PMS5003;72691;51.374;-0.176;2023-09-08T04:36:27;15;14;
82667;PMS5003;72691;51.374;-0.176;2023-09-08T04:38:53;16;16;
82667;PMS5003;72691;51.374;-0.176;2023-09-08T04:41:18;15;14;
82667;PMS5003;72691;51.374;-0.176;2023-09-08T04:43:43;15;14;
82667;PMS5003;72691;51.374;-0.176;2023-09-08T04:46:09;11;11;
82667;PMS5003;72691;51.374;-0.176;2023-09-08T04:48:34;11;11;
82667;PMS5003;72691;51.374;-0.176;2023-09-08T04:51:00;13;13;
82667;PMS5003;72691;51.374;-0.176;2023-09-08T04:53:25;14;14;
82667;PMS5003;72691;51.374;-0.176;2023-09-08T04:55:50;14;13;
82667;PMS5003;72691;51.374;-0.176;2023-09-08T04:58:16;15;13;
82667;PMS5003;72691;51.374;-0.176;2023-09-08T05:00:41;15;15;
82667;PMS5003;72691;51.374;-0.176;2023-09-08T05:03:07;12;11;
82667;PMS5003;72691;51.374;-0.176;2023-09-08T05:05:32;13;12;
82667;PMS5003;72691;51.374;-0.176;2023-09-08T05:07:57;14;14;
82667;PMS5003;72691;51.374;-0.176;2023-09-08T05:10:23;14;13;
82667;PMS5003;72691;51.374;-0.176;2023-09-08T05:12:49;13;13;
82667;PMS5003;72691;51.374;-0.176;2023-09-08T05:15:14;15;14;
82667;PMS5003;72691;51.374;-0.176;2023-09-08T05:17:39;14;13;
82667;PMS5003;72691;51.374;-0.176;2023-09-08T05:20:05;12;12;
82667;PMS5003;72691;51.374;-0.176;2023-09-08T05:22:30;15;15;
82667;PMS5003;72691;51.374;-0.176;2023-09-08T05:24:55;13;13;
82667;PMS5003;72691;51.374;-0.176;2023-09-08T05:27:20;13;13;
82667;PMS5003;72691;51.374;-0.176;2023-09-08T05:29:45;14;14;
82667;PMS5003;72691;51.374;-0.176;2023-09-08T05:32:11;13;13;
82667;PMS5003;72691;51.374;-0.176;2023-09-08T05:34:36;14;14;
82667;PMS5003;72691;51.374;-0.176;2023-09-08T05:37:01;17;16;
82667;PMS5003;72691;51.374;-0.176;2023-09-08T05:39:27;14;13;
82667;PMS5003;72691;51.374;-0.176;2023-09-08T05:41:52;17;16;
82667;PMS5003;72691;51.374;-0.176;2023-09-08T05:44:17;14;14;
82667;PMS5003;72691;51.374;-0.176;2023-09-08T05:46:42;13;13;
82667;PMS5003;72691;51.374;-0.176;2023-09-08T05:49:08;16;15;
82667;PMS5003;72691;51.374;-0.176;2023-09-08T05:51:33;15;14;
82667;PMS5003;72691;51.374;-0.176;2023-09-08T05:53:59;14;13;
82667;PMS5003;72691;51.374;-0.176;2023-09-08T05:56:24;14;14;
82667;PMS5003;72691;51.374;-0.176;2023-09-08T05:58:49;16;16;
82667;PMS5003;72691;51.374;-0.176;2023-09-08T06:01:15;18;18;
82667;PMS5003;72691;51.374;-0.176;2023-09-08T06:03:40;14;14;
82667;PMS5003;72691;51.374;-0.176;2023-09-08T06:06:06;19;19;
82667;PMS5003;72691;51.374;-0.176;2023-09-08T06:08:31;16;16;
82667;PMS5003;72691;51.374;-0.176;2023-09-08T06:10:57;17;16;
82667;PMS5003;72691;51.374;-0.176;2023-09-08T06:13:22;16;16;
82667;PMS5003;72691;51.374;-0.176;2023-09-08T06:15:47;16;16;
82667;PMS5003;72691;51.374;-0.176;2023-09-08T06:18:12;16;15;
82667;PMS5003;72691;51.374;-0.176;2023-09-08T06:23:03;20;19;
82667;PMS5003;72691;51.374;-0.176;2023-09-08T06:25:28;18;18;
82667;PMS5003;72691;51.374;-0.176;2023-09-08T06:27:53;17;16;
82667;PMS5003;72691;51.374;-0.176;2023-09-08T06:30:18;17;17;
82667;PMS5003;72691;51.374;-0.176;2023-09-08T06:32:43;17;16;
82667;PMS5003;72691;51.374;-0.176;2023-09-08T06:35:08;22;21;
82667;PMS5003;72691;51.374;-0.176;2023-09-08T06:37:35;18;18;
82667;PMS5003;72691;51.374;-0.176;2023-09-08T06:39:59;19;19;
82667;PMS5003;72691;51.374;-0.176;2023-09-08T06:42:25;22;22;
82667;PMS5003;72691;51.374;-0.176;2023-09-08T06:44:50;19;19;
82667;PMS5003;72691;51.374;-0.176;2023-09-08T06:47:15;19;19;
82667;PMS5003;72691;51.374;-0.176;2023-09-08T06:49:40;19;19;
82667;PMS5003;72691;51.374;-0.176;2023-09-08T06:52:06;16;15;
82667;PMS5003;72691;51.374;-0.176;2023-09-08T06:54:31;21;21;
82667;PMS5003;72691;51.374;-0.176;2023-09-08T06:56:56;22;21;
82667;PMS5003;72691;51.374;-0.176;2023-09-08T06:59:21;22;21;
82667;PMS5003;72691;51.374;-0.176;2023-09-08T07:01:47;24;23;
82667;PMS5003;72691;51.374;-0.176;2023-09-08T07:04:12;22;21;
82667;PMS5003;72691;51.374;-0.176;2023-09-08T07:06:37;22;21;
82667;PMS5003;72691;51.374;-0.176;2023-09-08T07:09:03;20;20;
82667;PMS5003;72691;51.374;-0.176;2023-09-08T07:11:28;20;20;
82667;PMS5003;72691;51.374;-0.176;2023-09-08T07:13:54;20;20;
82667;PMS5003;72691;51.374;-0.176;2023-09-08T07:16:20;23;22;
82667;PMS5003;72691;51.374;-0.176;2023-09-08T07:18:45;19;18;
82667;PMS5003;72691;51.374;-0.176;2023-09-08T07:21:10;19;19;
82667;PMS5003;72691;51.374;-0.176;2023-09-08T07:23:35;23;20;
82667;PMS5003;72691;51.374;-0.176;2023-09-08T07:26:01;26;25;
82667;PMS5003;72691;51.374;-0.176;2023-09-08T07:28:26;21;21;
82667;PMS5003;72691;51.374;-0.176;2023-09-08T07:30:52;24;22;
82667;PMS5003;72691;51.374;-0.176;2023-09-08T07:33:17;19;19;
82667;PMS5003;72691;51.374;-0.176;2023-09-08T07:35:43;20;18;
82667;PMS5003;72691;51.374;-0.176;2023-09-08T07:38:08;19;18;
82667;PMS5003;72691;51.374;-0.176;2023-09-08T07:40:33;20;19;
82667;PMS5003;72691;51.374;-0.176;2023-09-08T07:42:59;18;18;
82667;PMS5003;72691;51.374;-0.176;2023-09-08T07:45:24;22;21;
82667;PMS5003;72691;51.374;-0.176;2023-09-08T07:47:49;19;19;
82667;PMS5003;72691;51.374;-0.176;2023-09-08T07:50:16;18;18;
82667;PMS5003;72691;51.374;-0.176;2023-09-08T07:52:40;17;17;
82667;PMS5003;72691;51.374;-0.176;2023-09-08T07:55:05;19;18;
82667;PMS5003;72691;51.374;-0.176;2023-09-08T07:57:30;17;17;
82667;PMS5003;72691;51.374;-0.176;2023-09-08T07:59:55;19;19;
82667;PMS5003;72691;51.374;-0.176;2023-09-08T08:02:20;17;16;
82667;PMS5003;72691;51.374;-0.176;2023-09-08T08:04:46;17;17;
82667;PMS5003;72691;51.374;-0.176;2023-09-08T08:07:11;17;16;
82667;PMS5003;72691;51.374;-0.176;2023-09-08T08:09:36;18;18;
82667;PMS5003;72691;51.374;-0.176;2023-09-08T08:12:02;16;16;
82667;PMS5003;72691;51.374;-0.176;2023-09-08T08:14:27;17;16;
82667;PMS5003;72691;51.374;-0.176;2023-09-08T08:16:52;16;16;
82667;PMS5003;72691;51.374;-0.176;2023-09-08T08:19:18;15;15;
82667;PMS5003;72691;51.374;-0.176;2023-09-08T08:21:43;19;18;
82667;PMS5003;72691;51.374;-0.176;2023-09-08T08:24:08;17;16;
82667;PMS5003;72691;51.374;-0.176;2023-09-08T08:26:34;20;19;
82667;PMS5003;72691;51.374;-0.176;2023-09-08T08:28:59;17;17;
82667;PMS5003;72691;51.374;-0.176;2023-09-08T08:31:24;16;16;
82667;PMS5003;72691;51.374;-0.176;2023-09-08T08:33:50;17;16;
82667;PMS5003;72691;51.374;-0.176;2023-09-08T08:36:15;18;16;
82667;PMS5003;72691;51.374;-0.176;2023-09-08T08:38:41;12;12;
82667;PMS5003;72691;51.374;-0.176;2023-09-08T08:41:06;14;13;
82667;PMS5003;72691;51.374;-0.176;2023-09-08T08:43:31;14;14;
82667;PMS5003;72691;51.374;-0.176;2023-09-08T08:45:57;14;13;
82667;PMS5003;72691;51.374;-0.176;2023-09-08T08:48:22;14;14;
82667;PMS5003;72691;51.374;-0.176;2023-09-08T08:50:47;14;14;
82667;PMS5003;72691;51.374;-0.176;2023-09-08T08:53:12;14;14;
82667;PMS5003;72691;51.374;-0.176;2023-09-08T08:55:37;14;14;
82667;PMS5003;72691;51.374;-0.176;2023-09-08T08:58:04;15;15;
82667;PMS5003;72691;51.374;-0.176;2023-09-08T09:00:28;14;14;
82667;PMS5003;72691;51.374;-0.176;2023-09-08T09:02:54;14;13;
82667;PMS5003;72691;51.374;-0.176;2023-09-08T09:05:19;12;11;
82667;PMS5003;72691;51.374;-0.176;2023-09-08T09:07:44;14;14;
82667;PMS5003;72691;51.374;-0.176;2023-09-08T09:10:09;14;13;
82667;PMS5003;72691;51.374;-0.176;2023-09-08T09:12:36;12;12;
82667;PMS5003;72691;51.374;-0.176;2023-09-08T09:15:00;15;15;
82667;PMS5003;72691;51.374;-0.176;2023-09-08T09:17:26;12;12;
82667;PMS5003;72691;51.374;-0.176;2023-09-08T09:19:51;13;13;
82667;PMS5003;72691;51.374;-0.176;2023-09-08T09:22:19;13;13;
82667;PMS5003;72691;51.374;-0.176;2023-09-08T09:24:41;13;13;
82667;PMS5003;72691;51.374;-0.176;2023-09-08T09:27:07;13;13;
82667;PMS5003;72691;51.374;-0.176;2023-09-08T09:29:32;12;12;
82667;PMS5003;72691;51.374;-0.176;2023-09-08T09:31:58;13;12;
82667;PMS5003;72691;51.374;-0.176;2023-09-08T09:34:22;14;14;
82667;PMS5003;72691;51.374;-0.176;2023-09-08T09:36:48;13;13;
82667;PMS5003;72691;51.374;-0.176;2023-09-08T09:39:13;15;15;
82667;PMS5003;72691;51.374;-0.176;2023-09-08T09:41:38;13;12;
82667;PMS5003;72691;51.374;-0.176;2023-09-08T09:44:04;14;14;
82667;PMS5003;72691;51.374;-0.176;2023-09-08T09:46:29;13;13;
82667;PMS5003;72691;51.374;-0.176;2023-09-08T09:48:54;17;17;
82667;PMS5003;72691;51.374;-0.176;2023-09-08T09:51:19;17;16;
82667;PMS5003;72691;51.374;-0.176;2023-09-08T09:53:45;12;12;
82667;PMS5003;72691;51.374;-0.176;2023-09-08T09:56:10;12;12;
82667;PMS5003;72691;51.374;-0.176;2023-09-08T09:58:35;14;14;
82667;PMS5003;72691;51.374;-0.176;2023-09-08T10:01:01;14;14;
82667;PMS5003;72691;51.374;-0.176;2023-09-08T10:03:26;13;12;
82667;PMS5003;72691;51.374;-0.176;2023-09-08T10:05:52;17;16;
82667;PMS5003;72691;51.374;-0.176;2023-09-08T10:08:17;12;12;
82667;PMS5003;72691;51.374;-0.176;2023-09-08T10:10:43;15;14;
82667;PMS5003;72691;51.374;-0.176;2023-09-08T10:13:08;16;15;
82667;PMS5003;72691;51.374;-0.176;2023-09-08T10:15:33;15;14;
82667;PMS5003;72691;51.374;-0.176;2023-09-08T10:17:59;16;16;
82667;PMS5003;72691;51.374;-0.176;2023-09-08T10:20:25;18;18;
82667;PMS5003;72691;51.374;-0.176;2023-09-08T10:22:52;17;17;
82667;PMS5003;72691;51.374;-0.176;2023-09-08T10:25:14;18;18;
82667;PMS5003;72691;51.374;-0.176;2023-09-08T10:27:40;18;15;
82667;PMS5003;72691;51.374;-0.176;2023-09-08T10:30:06;14;14;
82667;PMS5003;72691;51.374;-0.176;2023-09-08T10:32:31;17;17;
82667;PMS5003;72691;51.374;-0.176;2023-09-08T10:34:56;20;19;
82667;PMS5003;72691;51.374;-0.176;2023-09-08T10:37:22;16;15;
82667;PMS5003;72691;51.374;-0.176;2023-09-08T10:39:47;17;17;
82667;PMS5003;72691;51.374;-0.176;2023-09-08T10:42:22;18;17;
82667;PMS5003;72691;51.374;-0.176;2023-09-08T10:44:38;15;15;
82667;PMS5003;72691;51.374;-0.176;2023-09-08T10:47:04;18;17;
82667;PMS5003;72691;51.374;-0.176;2023-09-08T10:49:30;18;16;
82667;PMS5003;72691;51.374;-0.176;2023-09-08T10:56:48;12;12;
82667;PMS5003;72691;51.374;-0.176;2023-09-08T10:59:11;15;15;
82667;PMS5003;72691;51.374;-0.176;2023-09-08T11:01:38;16;15;
82667;PMS5003;72691;51.374;-0.176;2023-09-08T11:04:02;16;16;
82667;PMS5003;72691;51.374;-0.176;2023-09-08T11:06:27;18;16;
82667;PMS5003;72691;51.374;-0.176;2023-09-08T11:08:52;12;12;
82667;PMS5003;72691;51.374;-0.176;2023-09-08T11:11:18;16;15;
82667;PMS5003;72691;51.374;-0.176;2023-09-08T11:13:43;17;17;
82667;PMS5003;72691;51.374;-0.176;2023-09-08T11:16:09;13;13;
82667;PMS5003;72691;51.374;-0.176;2023-09-08T11:18:34;19;19;
82667;PMS5003;72691;51.374;-0.176;2023-09-08T11:21:00;14;13;
82667;PMS5003;72691;51.374;-0.176;2023-09-08T11:23:24;16;15;
82667;PMS5003;72691;51.374;-0.176;2023-09-08T11:25:50;17;17;
82667;PMS5003;72691;51.374;-0.176;2023-09-08T11:28:15;16;15;
82667;PMS5003;72691;51.374;-0.176;2023-09-08T11:30:41;15;15;
82667;PMS5003;72691;51.374;-0.176;2023-09-08T11:35:31;16;15;
82667;PMS5003;72691;51.374;-0.176;2023-09-08T11:38:00;19;19;
82667;PMS5003;72691;51.374;-0.176;2023-09-08T11:40:23;17;17;
82667;PMS5003;72691;51.374;-0.176;2023-09-08T11:42:47;16;16;
82667;PMS5003;72691;51.374;-0.176;2023-09-08T11:45:13;14;14;
82667;PMS5003;72691;51.374;-0.176;2023-09-08T11:47:40;18;18;
82667;PMS5003;72691;51.374;-0.176;2023-09-08T11:50:04;15;15;
82667;PMS5003;72691;51.374;-0.176;2023-09-08T11:52:28;17;17;
82667;PMS5003;72691;51.374;-0.176;2023-09-08T11:54:54;17;16;
82667;PMS5003;72691;51.374;-0.176;2023-09-08T11:57:19;15;14;
82667;PMS5003;72691;51.374;-0.176;2023-09-08T11:59:45;16;16;
82667;PMS5003;72691;51.374;-0.176;2023-09-08T12:02:10;15;15;
82667;PMS5003;72691;51.374;-0.176;2023-09-08T12:04:35;16;15;
82667;PMS5003;72691;51.374;-0.176;2023-09-08T12:07:01;15;15;
82667;PMS5003;72691;51.374;-0.176;2023-09-08T12:09:26;17;17;
82667;PMS5003;72691;51.374;-0.176;2023-09-08T12:11:51;18;18;
82667;PMS5003;72691;51.374;-0.176;2023-09-08T12:14:17;18;18;
82667;PMS5003;72691;51.374;-0.176;2023-09-08T12:16:42;12;12;
82667;PMS5003;72691;51.374;-0.176;2023-09-08T12:19:07;15;15;
82667;PMS5003;72691;51.374;-0.176;2023-09-08T12:21:34;15;15;
82667;PMS5003;72691;51.374;-0.176;2023-09-08T12:23:58;16;16;
82667;PMS5003;72691;51.374;-0.176;2023-09-08T12:26:24;16;16;
82667;PMS5003;72691;51.374;-0.176;2023-09-08T12:28:48;18;18;
82667;PMS5003;72691;51.374;-0.176;2023-09-08T12:31:14;18;18;
82667;PMS5003;72691;51.374;-0.176;2023-09-08T12:33:39;16;16;
82667;PMS5003;72691;51.374;-0.176;2023-09-08T12:38:30;18;18;
82667;PMS5003;72691;51.374;-0.176;2023-09-08T12:40:55;19;19;
82667;PMS5003;72691;51.374;-0.176;2023-09-08T12:43:21;18;17;
82667;PMS5003;72691;51.374;-0.176;2023-09-08T12:45:46;17;17;
82667;PMS5003;72691;51.374;-0.176;2023-09-08T12:48:11;16;15;
82667;PMS5003;72691;51.374;-0.176;2023-09-08T12:50:37;18;17;
82667;PMS5003;72691;51.374;-0.176;2023-09-08T12:53:02;17;17;
82667;PMS5003;72691;51.374;-0.176;2023-09-08T12:55:27;17;16;
82667;PMS5003;72691;51.374;-0.176;2023-09-08T12:57:53;16;16;
82667;PMS5003;72691;51.374;-0.176;2023-09-08T13:00:19;16;16;
82667;PMS5003;72691;51.374;-0.176;2023-09-08T13:02:44;18;18;
82667;PMS5003;72691;51.374;-0.176;2023-09-08T13:05:09;17;17;
82667;PMS5003;72691;51.374;-0.176;2023-09-08T13:07:35;17;17;
82667;PMS5003;72691;51.374;-0.176;2023-09-08T13:10:00;16;16;
82667;PMS5003;72691;51.374;-0.176;2023-09-08T13:12:25;16;16;
82667;PMS5003;72691;51.374;-0.176;2023-09-08T13:14:51;20;19;
82667;PMS5003;72691;51.374;-0.176;2023-09-08T13:17:16;19;19;
82667;PMS5003;72691;51.374;-0.176;2023-09-08T13:19:42;16;16;
82667;PMS5003;72691;51.374;-0.176;2023-09-08T13:22:07;19;19;
82667;PMS5003;72691;51.374;-0.176;2023-09-08T13:24:33;14;14;
82667;PMS5003;72691;51.374;-0.176;2023-09-08T13:26:58;17;16;
82667;PMS5003;72691;51.374;-0.176;2023-09-08T13:29:23;17;17;
82667;PMS5003;72691;51.374;-0.176;2023-09-08T13:31:48;16;16;
82667;PMS5003;72691;51.374;-0.176;2023-09-08T13:34:14;15;15;
82667;PMS5003;72691;51.374;-0.176;2023-09-08T13:36:40;15;15;
82667;PMS5003;72691;51.374;-0.176;2023-09-08T13:39:05;20;19;
82667;PMS5003;72691;51.374;-0.176;2023-09-08T13:43:55;17;17;
82667;PMS5003;72691;51.374;-0.176;2023-09-08T13:46:21;20;20;
82667;PMS5003;72691;51.374;-0.176;2023-09-08T13:48:46;18;17;
82667;PMS5003;72691;51.374;-0.176;2023-09-08T13:51:12;15;15;
82667;PMS5003;72691;51.374;-0.176;2023-09-08T13:53:37;19;18;
82667;PMS5003;72691;51.374;-0.176;2023-09-08T13:56:03;16;16;
82667;PMS5003;72691;51.374;-0.176;2023-09-08T13:58:28;17;17;
82667;PMS5003;72691;51.374;-0.176;2023-09-08T14:00:53;17;16;
82667;PMS5003;72691;51.374;-0.176;2023-09-08T14:03:18;20;20;
82667;PMS5003;72691;51.374;-0.176;2023-09-08T14:05:44;19;19;
82667;PMS5003;72691;51.374;-0.176;2023-09-08T14:08:09;18;17;
82667;PMS5003;72691;51.374;-0.176;2023-09-08T14:10:35;19;19;
82667;PMS5003;72691;51.374;-0.176;2023-09-08T14:13:00;15;15;
82667;PMS5003;72691;51.374;-0.176;2023-09-08T14:15:26;16;16;
82667;PMS5003;72691;51.374;-0.176;2023-09-08T14:17:51;16;16;
82667;PMS5003;72691;51.374;-0.176;2023-09-08T14:20:16;17;17;
82667;PMS5003;72691;51.374;-0.176;2023-09-08T14:22:42;16;16;
82667;PMS5003;72691;51.374;-0.176;2023-09-08T14:25:07;18;18;
82667;PMS5003;72691;51.374;-0.176;2023-09-08T14:27:33;18;17;
82667;PMS5003;72691;51.374;-0.176;2023-09-08T14:29:58;16;16;
82667;PMS5003;72691;51.374;-0.176;2023-09-08T14:32:23;19;19;
82667;PMS5003;72691;51.374;-0.176;2023-09-08T14:34:49;19;19;
82667;PMS5003;72691;51.374;-0.176;2023-09-08T14:37:14;19;19;
82667;PMS5003;72691;51.374;-0.176;2023-09-08T14:39:39;20;20;
82667;PMS5003;72691;51.374;-0.176;2023-09-08T14:42:05;17;17;
82667;PMS5003;72691;51.374;-0.176;2023-09-08T14:44:30;20;20;
82667;PMS5003;72691;51.374;-0.176;2023-09-08T14:46:55;19;19;
82667;PMS5003;72691;51.374;-0.176;2023-09-08T14:49:21;21;19;
82667;PMS5003;72691;51.374;-0.176;2023-09-08T14:51:47;16;16;
82667;PMS5003;72691;51.374;-0.176;2023-09-08T14:54:12;17;17;
82667;PMS5003;72691;51.374;-0.176;2023-09-08T14:56:37;20;19;
82667;PMS5003;72691;51.374;-0.176;2023-09-08T14:59:03;18;18;
82667;PMS5003;72691;51.374;-0.176;2023-09-08T15:01:28;17;17;
82667;PMS5003;72691;51.374;-0.176;2023-09-08T15:03:53;17;17;
82667;PMS5003;72691;51.374;-0.176;2023-09-08T15:06:18;18;18;
82667;PMS5003;72691;51.374;-0.176;2023-09-08T15:08:43;19;18;
82667;PMS5003;72691;51.374;-0.176;2023-09-08T15:11:09;18;18;
82667;PMS5003;72691;51.374;-0.176;2023-09-08T15:13:34;21;21;
82667;PMS5003;72691;51.374;-0.176;2023-09-08T15:16:00;19;19;
82667;PMS5003;72691;51.374;-0.176;2023-09-08T15:18:25;20;20;
82667;PMS5003;72691;51.374;-0.176;2023-09-08T15:20:51;21;19;
82667;PMS5003;72691;51.374;-0.176;2023-09-08T15:23:15;18;17;
82667;PMS5003;72691;51.374;-0.176;2023-09-08T15:25:41;17;17;
82667;PMS5003;72691;51.374;-0.176;2023-09-08T15:28:07;21;20;
82667;PMS5003;72691;51.374;-0.176;2023-09-08T15:30:32;18;18;
82667;PMS5003;72691;51.374;-0.176;2023-09-08T15:33:01;20;19;
82667;PMS5003;72691;51.374;-0.176;2023-09-08T15:35:22;18;17;
82667;PMS5003;72691;51.374;-0.176;2023-09-08T15:37:48;17;17;
82667;PMS5003;72691;51.374;-0.176;2023-09-08T15:40:13;20;20;
82667;PMS5003;72691;51.374;-0.176;2023-09-08T15:42:38;21;21;
82667;PMS5003;72691;51.374;-0.176;2023-09-08T15:45:03;18;18;
82667;PMS5003;72691;51.374;-0.176;2023-09-08T15:47:28;17;16;
82667;PMS5003;72691;51.374;-0.176;2023-09-08T15:49:54;19;19;
82667;PMS5003;72691;51.374;-0.176;2023-09-08T15:52:19;20;20;
82667;PMS5003;72691;51.374;-0.176;2023-09-08T15:54:44;20;20;
82667;PMS5003;72691;51.374;-0.176;2023-09-08T15:57:10;18;18;
82667;PMS5003;72691;51.374;-0.176;2023-09-08T15:59:35;20;20;
82667;PMS5003;72691;51.374;-0.176;2023-09-08T16:02:00;19;18;